Terminal Aerodrome Forecast
Issued by NWS

Home | Current Version | Previous Version | Text Only | Print | Product List | Glossary On
Versions: 1 2 3 4 5 6 7 8 9 10 11 12 13
000
FTUS45 KGJT 230536
TAFDRO
TAF
KDRO 230536Z 2306/2406 04006KT P6SM SKC
     FM231700 24007KT P6SM SKC
     FM232000 25012G20KT P6SM SKC
     FM240000 29010KT P6SM FEW140 FEW250=

USA.gov is the U.S. government's official web portal to all federal, state and local government web resources and services.